sensor_id;sensor_type;location;lat;lon;timestamp;temperature;humidity
44863;DHT22;30597;49.628;10.850;2023-04-15T00:02:17;21.00;50.10
44863;DHT22;30597;49.628;10.850;2023-04-15T00:04:46;21.00;50.20
44863;DHT22;30597;49.628;10.850;2023-04-15T00:07:12;21.10;50.30
44863;DHT22;30597;49.628;10.850;2023-04-15T00:09:40;21.10;50.20
44863;DHT22;30597;49.628;10.850;2023-04-15T00:12:06;21.00;50.90
44863;DHT22;30597;49.628;10.850;2023-04-15T00:14:33;20.90;50.10
44863;DHT22;30597;49.628;10.850;2023-04-15T00:17:00;20.90;50.10
44863;DHT22;30597;49.628;10.850;2023-04-15T00:19:25;20.90;50.10
44863;DHT22;30597;49.628;10.850;2023-04-15T00:21:51;20.90;50.00
44863;DHT22;30597;49.628;10.850;2023-04-15T00:24:16;20.90;50.20
44863;DHT22;30597;49.628;10.850;2023-04-15T00:26:42;20.90;50.10
44863;DHT22;30597;49.628;10.850;2023-04-15T00:29:07;21.00;50.30
44863;DHT22;30597;49.628;10.850;2023-04-15T00:31:33;21.10;50.30
44863;DHT22;30597;49.628;10.850;2023-04-15T00:33:59;21.10;50.30
44863;DHT22;30597;49.628;10.850;2023-04-15T00:36:24;21.00;50.10
44863;DHT22;30597;49.628;10.850;2023-04-15T00:38:50;21.00;50.10
44863;DHT22;30597;49.628;10.850;2023-04-15T00:41:17;21.00;50.20
44863;DHT22;30597;49.628;10.850;2023-04-15T00:43:43;20.90;50.20
44863;DHT22;30597;49.628;10.850;2023-04-15T00:46:11;21.00;50.30
44863;DHT22;30597;49.628;10.850;2023-04-15T00:48:37;21.00;50.40
44863;DHT22;30597;49.628;10.850;2023-04-15T00:51:03;21.00;50.30
44863;DHT22;30597;49.628;10.850;2023-04-15T00:53:29;20.80;50.30
44863;DHT22;30597;49.628;10.850;2023-04-15T00:55:55;20.80;50.30
44863;DHT22;30597;49.628;10.850;2023-04-15T00:58:20;20.80;50.40
44863;DHT22;30597;49.628;10.850;2023-04-15T01:00:46;20.80;50.40
44863;DHT22;30597;49.628;10.850;2023-04-15T01:03:12;20.70;50.50
44863;DHT22;30597;49.628;10.850;2023-04-15T01:05:51;20.70;50.50
44863;DHT22;30597;49.628;10.850;2023-04-15T01:08:28;20.70;50.50
44863;DHT22;30597;49.628;10.850;2023-04-15T01:10:56;20.70;50.60
44863;DHT22;30597;49.628;10.850;2023-04-15T01:13:28;20.70;50.70
44863;DHT22;30597;49.628;10.850;2023-04-15T01:15:55;20.60;50.50
44863;DHT22;30597;49.628;10.850;2023-04-15T01:18:22;20.60;50.70
44863;DHT22;30597;49.628;10.850;2023-04-15T01:20:48;20.60;50.50
44863;DHT22;30597;49.628;10.850;2023-04-15T01:23:14;20.70;50.70
44863;DHT22;30597;49.628;10.850;2023-04-15T01:25:43;20.50;50.50
44863;DHT22;30597;49.628;10.850;2023-04-15T01:28:09;20.60;50.70
44863;DHT22;30597;49.628;10.850;2023-04-15T01:30:35;20.60;50.70
44863;DHT22;30597;49.628;10.850;2023-04-15T01:33:04;20.50;50.50
44863;DHT22;30597;49.628;10.850;2023-04-15T01:35:29;20.50;50.70
44863;DHT22;30597;49.628;10.850;2023-04-15T01:38:01;20.50;50.70
44863;DHT22;30597;49.628;10.850;2023-04-15T01:40:27;20.50;50.80
44863;DHT22;30597;49.628;10.850;2023-04-15T01:42:53;20.50;50.70
44863;DHT22;30597;49.628;10.850;2023-04-15T01:45:19;20.50;50.60
44863;DHT22;30597;49.628;10.850;2023-04-15T01:47:44;20.50;50.80
44863;DHT22;30597;49.628;10.850;2023-04-15T01:50:10;20.50;50.80
44863;DHT22;30597;49.628;10.850;2023-04-15T01:52:35;20.50;50.80
44863;DHT22;30597;49.628;10.850;2023-04-15T01:55:01;20.50;51.60
44863;DHT22;30597;49.628;10.850;2023-04-15T01:57:26;20.50;50.90
44863;DHT22;30597;49.628;10.850;2023-04-15T01:59:52;20.50;50.90
44863;DHT22;30597;49.628;10.850;2023-04-15T02:02:17;20.50;51.00
44863;DHT22;30597;49.628;10.850;2023-04-15T02:04:43;20.60;51.10
44863;DHT22;30597;49.628;10.850;2023-04-15T02:07:09;20.40;51.00
44863;DHT22;30597;49.628;10.850;2023-04-15T02:09:34;20.40;50.90
44863;DHT22;30597;49.628;10.850;2023-04-15T02:12:00;20.40;51.00
44863;DHT22;30597;49.628;10.850;2023-04-15T02:14:26;20.40;51.00
44863;DHT22;30597;49.628;10.850;2023-04-15T02:16:51;20.50;51.10
44863;DHT22;30597;49.628;10.850;2023-04-15T02:19:17;20.50;51.20
44863;DHT22;30597;49.628;10.850;2023-04-15T02:21:42;20.50;51.20
44863;DHT22;30597;49.628;10.850;2023-04-15T02:24:08;20.40;51.10
44863;DHT22;30597;49.628;10.850;2023-04-15T02:26:33;20.40;51.70
44863;DHT22;30597;49.628;10.850;2023-04-15T02:28:59;20.40;51.10
44863;DHT22;30597;49.628;10.850;2023-04-15T02:31:25;20.40;51.10
44863;DHT22;30597;49.628;10.850;2023-04-15T02:33:50;20.40;51.20
44863;DHT22;30597;49.628;10.850;2023-04-15T02:36:16;20.40;51.30
44863;DHT22;30597;49.628;10.850;2023-04-15T02:38:42;20.50;51.30
44863;DHT22;30597;49.628;10.850;2023-04-15T02:41:08;20.50;51.30
44863;DHT22;30597;49.628;10.850;2023-04-15T02:43:34;20.40;51.30
44863;DHT22;30597;49.628;10.850;2023-04-15T02:46:00;20.30;51.10
44863;DHT22;30597;49.628;10.850;2023-04-15T02:48:25;20.40;51.20
44863;DHT22;30597;49.628;10.850;2023-04-15T02:50:51;20.30;51.20
44863;DHT22;30597;49.628;10.850;2023-04-15T02:53:17;20.40;51.30
44863;DHT22;30597;49.628;10.850;2023-04-15T02:55:44;20.30;51.30
44863;DHT22;30597;49.628;10.850;2023-04-15T02:58:10;20.30;51.20
44863;DHT22;30597;49.628;10.850;2023-04-15T03:00:36;20.30;51.20
44863;DHT22;30597;49.628;10.850;2023-04-15T03:03:03;20.30;51.20
44863;DHT22;30597;49.628;10.850;2023-04-15T03:05:29;20.40;51.30
44863;DHT22;30597;49.628;10.850;2023-04-15T03:07:55;20.30;51.20
44863;DHT22;30597;49.628;10.850;2023-04-15T03:10:20;20.30;51.10
44863;DHT22;30597;49.628;10.850;2023-04-15T03:12:46;20.30;51.20
44863;DHT22;30597;49.628;10.850;2023-04-15T03:15:12;20.30;51.30
44863;DHT22;30597;49.628;10.850;2023-04-15T03:17:38;20.30;51.40
44863;DHT22;30597;49.628;10.850;2023-04-15T03:20:04;20.30;51.20
44863;DHT22;30597;49.628;10.850;2023-04-15T03:22:31;20.30;51.30
44863;DHT22;30597;49.628;10.850;2023-04-15T03:24:56;20.30;51.30
44863;DHT22;30597;49.628;10.850;2023-04-15T03:27:23;20.30;51.30
44863;DHT22;30597;49.628;10.850;2023-04-15T03:29:48;20.30;51.40
44863;DHT22;30597;49.628;10.850;2023-04-15T03:32:15;20.30;51.30
44863;DHT22;30597;49.628;10.850;2023-04-15T03:34:41;20.30;52.00
44863;DHT22;30597;49.628;10.850;2023-04-15T03:37:07;20.20;51.30
44863;DHT22;30597;49.628;10.850;2023-04-15T03:39:33;20.20;51.30
44863;DHT22;30597;49.628;10.850;2023-04-15T03:41:58;20.30;51.40
44863;DHT22;30597;49.628;10.850;2023-04-15T03:44:25;20.30;51.50
44863;DHT22;30597;49.628;10.850;2023-04-15T03:46:51;20.20;51.50
44863;DHT22;30597;49.628;10.850;2023-04-15T03:49:16;20.20;51.50
44863;DHT22;30597;49.628;10.850;2023-04-15T03:51:43;20.20;51.50
44863;DHT22;30597;49.628;10.850;2023-04-15T03:54:09;20.20;51.60
44863;DHT22;30597;49.628;10.850;2023-04-15T03:56:35;20.20;51.60
44863;DHT22;30597;49.628;10.850;2023-04-15T03:59:01;20.20;51.50
44863;DHT22;30597;49.628;10.850;2023-04-15T04:01:26;20.20;51.50
44863;DHT22;30597;49.628;10.850;2023-04-15T04:03:52;20.20;51.50
44863;DHT22;30597;49.628;10.850;2023-04-15T04:06:17;20.10;51.40
44863;DHT22;30597;49.628;10.850;2023-04-15T04:08:43;20.10;51.50
44863;DHT22;30597;49.628;10.850;2023-04-15T04:11:09;20.10;51.50
44863;DHT22;30597;49.628;10.850;2023-04-15T04:13:34;20.10;51.50
44863;DHT22;30597;49.628;10.850;2023-04-15T04:16:00;20.10;51.50
44863;DHT22;30597;49.628;10.850;2023-04-15T04:18:25;20.10;51.50
44863;DHT22;30597;49.628;10.850;2023-04-15T04:20:51;20.10;51.50
44863;DHT22;30597;49.628;10.850;2023-04-15T04:23:17;20.10;51.50
44863;DHT22;30597;49.628;10.850;2023-04-15T04:25:42;20.20;51.60
44863;DHT22;30597;49.628;10.850;2023-04-15T04:28:08;20.00;51.50
44863;DHT22;30597;49.628;10.850;2023-04-15T04:30:34;20.00;51.50
44863;DHT22;30597;49.628;10.850;2023-04-15T04:33:00;20.00;51.50
44863;DHT22;30597;49.628;10.850;2023-04-15T04:35:26;20.00;51.60
44863;DHT22;30597;49.628;10.850;2023-04-15T04:37:52;20.10;51.70
44863;DHT22;30597;49.628;10.850;2023-04-15T04:40:18;20.00;51.60
44863;DHT22;30597;49.628;10.850;2023-04-15T04:42:43;20.10;51.70
44863;DHT22;30597;49.628;10.850;2023-04-15T04:45:09;20.00;51.70
44863;DHT22;30597;49.628;10.850;2023-04-15T04:47:35;20.00;51.60
44863;DHT22;30597;49.628;10.850;2023-04-15T04:50:01;20.00;51.60
44863;DHT22;30597;49.628;10.850;2023-04-15T04:52:26;20.00;51.70
44863;DHT22;30597;49.628;10.850;2023-04-15T04:54:52;20.00;51.70
44863;DHT22;30597;49.628;10.850;2023-04-15T04:57:17;19.90;51.70
44863;DHT22;30597;49.628;10.850;2023-04-15T04:59:43;19.90;51.60
44863;DHT22;30597;49.628;10.850;2023-04-15T05:02:08;20.10;51.90
44863;DHT22;30597;49.628;10.850;2023-04-15T05:04:35;19.90;51.70
44863;DHT22;30597;49.628;10.850;2023-04-15T05:07:01;19.90;51.70
44863;DHT22;30597;49.628;10.850;2023-04-15T05:09:26;19.90;51.70
44863;DHT22;30597;49.628;10.850;2023-04-15T05:11:53;19.90;51.70
44863;DHT22;30597;49.628;10.850;2023-04-15T05:14:18;19.90;51.70
44863;DHT22;30597;49.628;10.850;2023-04-15T05:16:44;19.90;51.80
44863;DHT22;30597;49.628;10.850;2023-04-15T05:19:09;19.90;51.70
44863;DHT22;30597;49.628;10.850;2023-04-15T05:21:35;19.90;51.80
44863;DHT22;30597;49.628;10.850;2023-04-15T05:24:01;19.90;51.80
44863;DHT22;30597;49.628;10.850;2023-04-15T05:26:26;19.90;51.80
44863;DHT22;30597;49.628;10.850;2023-04-15T05:28:52;19.90;51.90
44863;DHT22;30597;49.628;10.850;2023-04-15T05:31:18;19.90;51.80
44863;DHT22;30597;49.628;10.850;2023-04-15T05:33:44;19.90;51.90
44863;DHT22;30597;49.628;10.850;2023-04-15T05:36:09;19.90;51.90
44863;DHT22;30597;49.628;10.850;2023-04-15T05:38:35;20.00;52.00
44863;DHT22;30597;49.628;10.850;2023-04-15T05:41:00;19.90;51.90
44863;DHT22;30597;49.628;10.850;2023-04-15T05:43:26;19.90;51.90
44863;DHT22;30597;49.628;10.850;2023-04-15T05:45:51;19.90;51.90
44863;DHT22;30597;49.628;10.850;2023-04-15T05:48:17;19.90;51.90
44863;DHT22;30597;49.628;10.850;2023-04-15T05:50:43;19.90;51.90
44863;DHT22;30597;49.628;10.850;2023-04-15T05:53:08;19.90;51.90
44863;DHT22;30597;49.628;10.850;2023-04-15T05:55:34;19.90;51.90
44863;DHT22;30597;49.628;10.850;2023-04-15T05:57:59;19.90;51.90
44863;DHT22;30597;49.628;10.850;2023-04-15T06:00:25;19.90;51.90
44863;DHT22;30597;49.628;10.850;2023-04-15T06:02:51;19.90;51.90
44863;DHT22;30597;49.628;10.850;2023-04-15T06:05:17;19.90;51.90
44863;DHT22;30597;49.628;10.850;2023-04-15T06:07:43;20.00;52.10
44863;DHT22;30597;49.628;10.850;2023-04-15T06:10:09;20.00;52.10
44863;DHT22;30597;49.628;10.850;2023-04-15T06:12:35;20.20;52.10
44863;DHT22;30597;49.628;10.850;2023-04-15T06:15:01;20.30;51.90
44863;DHT22;30597;49.628;10.850;2023-04-15T06:17:26;20.40;51.80
44863;DHT22;30597;49.628;10.850;2023-04-15T06:19:52;20.60;51.70
44863;DHT22;30597;49.628;10.850;2023-04-15T06:22:23;20.70;51.60
44863;DHT22;30597;49.628;10.850;2023-04-15T06:24:49;20.70;51.40
44863;DHT22;30597;49.628;10.850;2023-04-15T06:27:16;20.80;51.40
44863;DHT22;30597;49.628;10.850;2023-04-15T06:29:41;20.90;51.20
44863;DHT22;30597;49.628;10.850;2023-04-15T06:32:07;21.10;51.20
44863;DHT22;30597;49.628;10.850;2023-04-15T06:34:33;21.00;51.00
44863;DHT22;30597;49.628;10.850;2023-04-15T06:36:58;21.10;50.90
44863;DHT22;30597;49.628;10.850;2023-04-15T06:39:25;21.10;50.90
44863;DHT22;30597;49.628;10.850;2023-04-15T06:41:51;21.20;50.80
44863;DHT22;30597;49.628;10.850;2023-04-15T06:44:17;21.20;50.80
44863;DHT22;30597;49.628;10.850;2023-04-15T06:46:43;21.30;50.70
44863;DHT22;30597;49.628;10.850;2023-04-15T06:49:09;21.30;50.50
44863;DHT22;30597;49.628;10.850;2023-04-15T06:51:35;21.30;50.70
44863;DHT22;30597;49.628;10.850;2023-04-15T06:54:01;21.40;50.70
44863;DHT22;30597;49.628;10.850;2023-04-15T06:56:33;21.40;50.70
44863;DHT22;30597;49.628;10.850;2023-04-15T06:58:58;21.40;50.60
44863;DHT22;30597;49.628;10.850;2023-04-15T07:01:24;21.40;50.50
44863;DHT22;30597;49.628;10.850;2023-04-15T07:03:50;21.50;50.60
44863;DHT22;30597;49.628;10.850;2023-04-15T07:06:15;21.50;50.50
44863;DHT22;30597;49.628;10.850;2023-04-15T07:08:41;21.50;50.50
44863;DHT22;30597;49.628;10.850;2023-04-15T07:11:07;21.70;50.80
44863;DHT22;30597;49.628;10.850;2023-04-15T07:13:33;21.60;50.30
44863;DHT22;30597;49.628;10.850;2023-04-15T07:15:58;21.60;50.00
44863;DHT22;30597;49.628;10.850;2023-04-15T07:18:24;21.50;49.90
44863;DHT22;30597;49.628;10.850;2023-04-15T07:20:49;21.60;49.90
44863;DHT22;30597;49.628;10.850;2023-04-15T07:23:15;21.60;49.80
44863;DHT22;30597;49.628;10.850;2023-04-15T07:25:41;21.50;49.70
44863;DHT22;30597;49.628;10.850;2023-04-15T07:28:07;21.50;49.70
44863;DHT22;30597;49.628;10.850;2023-04-15T07:30:32;21.50;49.80
44863;DHT22;30597;49.628;10.850;2023-04-15T07:33:00;21.60;49.60
44863;DHT22;30597;49.628;10.850;2023-04-15T07:35:26;21.50;48.60
44863;DHT22;30597;49.628;10.850;2023-04-15T07:37:51;21.40;48.40
44863;DHT22;30597;49.628;10.850;2023-04-15T07:40:17;21.40;49.00
44863;DHT22;30597;49.628;10.850;2023-04-15T07:42:43;21.50;49.10
44863;DHT22;30597;49.628;10.850;2023-04-15T07:45:09;21.50;49.20
44863;DHT22;30597;49.628;10.850;2023-04-15T07:47:35;21.50;49.40
44863;DHT22;30597;49.628;10.850;2023-04-15T07:50:00;21.50;49.50
44863;DHT22;30597;49.628;10.850;2023-04-15T07:52:27;21.50;48.80
44863;DHT22;30597;49.628;10.850;2023-04-15T07:54:52;21.50;49.20
44863;DHT22;30597;49.628;10.850;2023-04-15T07:57:18;21.40;49.40
44863;DHT22;30597;49.628;10.850;2023-04-15T07:59:44;21.40;49.60
44863;DHT22;30597;49.628;10.850;2023-04-15T08:02:10;21.30;49.70
44863;DHT22;30597;49.628;10.850;2023-04-15T08:04:36;21.30;49.80
44863;DHT22;30597;49.628;10.850;2023-04-15T08:07:02;21.40;50.00
44863;DHT22;30597;49.628;10.850;2023-04-15T08:09:28;21.20;50.00
44863;DHT22;30597;49.628;10.850;2023-04-15T08:11:54;21.30;50.10
44863;DHT22;30597;49.628;10.850;2023-04-15T08:14:20;21.30;50.30
44863;DHT22;30597;49.628;10.850;2023-04-15T08:16:46;21.20;50.10
44863;DHT22;30597;49.628;10.850;2023-04-15T08:19:12;21.20;50.20
44863;DHT22;30597;49.628;10.850;2023-04-15T08:21:38;21.10;49.80
44863;DHT22;30597;49.628;10.850;2023-04-15T08:24:05;21.00;49.90
44863;DHT22;30597;49.628;10.850;2023-04-15T08:26:31;21.00;49.90
44863;DHT22;30597;49.628;10.850;2023-04-15T08:28:56;21.00;49.80
44863;DHT22;30597;49.628;10.850;2023-04-15T08:31:22;21.00;49.80
44863;DHT22;30597;49.628;10.850;2023-04-15T08:33:48;21.10;49.80
44863;DHT22;30597;49.628;10.850;2023-04-15T08:36:16;21.30;49.80
44863;DHT22;30597;49.628;10.850;2023-04-15T08:38:43;21.30;48.90
44863;DHT22;30597;49.628;10.850;2023-04-15T08:41:20;21.20;47.30
44863;DHT22;30597;49.628;10.850;2023-04-15T08:43:53;21.40;47.80
44863;DHT22;30597;49.628;10.850;2023-04-15T08:46:21;21.60;48.10
44863;DHT22;30597;49.628;10.850;2023-04-15T08:48:47;21.50;48.00
44863;DHT22;30597;49.628;10.850;2023-04-15T08:51:13;21.60;48.40
44863;DHT22;30597;49.628;10.850;2023-04-15T08:53:42;21.70;48.30
44863;DHT22;30597;49.628;10.850;2023-04-15T08:56:08;21.70;47.90
44863;DHT22;30597;49.628;10.850;2023-04-15T08:58:35;21.70;47.60
44863;DHT22;30597;49.628;10.850;2023-04-15T09:01:01;21.90;47.60
44863;DHT22;30597;49.628;10.850;2023-04-15T09:03:27;21.80;47.60
44863;DHT22;30597;49.628;10.850;2023-04-15T09:05:53;21.80;47.60
44863;DHT22;30597;49.628;10.850;2023-04-15T09:08:19;21.80;47.60
44863;DHT22;30597;49.628;10.850;2023-04-15T09:10:44;21.80;47.70
44863;DHT22;30597;49.628;10.850;2023-04-15T09:13:10;21.70;47.60
44863;DHT22;30597;49.628;10.850;2023-04-15T09:15:37;21.70;47.60
44863;DHT22;30597;49.628;10.850;2023-04-15T09:18:03;21.70;47.60
44863;DHT22;30597;49.628;10.850;2023-04-15T09:20:30;21.70;47.80
44863;DHT22;30597;49.628;10.850;2023-04-15T09:23:11;21.60;47.80
44863;DHT22;30597;49.628;10.850;2023-04-15T09:25:39;21.60;47.90
44863;DHT22;30597;49.628;10.850;2023-04-15T09:28:07;21.50;47.90
44863;DHT22;30597;49.628;10.850;2023-04-15T09:30:33;21.40;47.90
44863;DHT22;30597;49.628;10.850;2023-04-15T09:33:01;21.50;48.10
44863;DHT22;30597;49.628;10.850;2023-04-15T09:35:27;21.30;48.10
44863;DHT22;30597;49.628;10.850;2023-04-15T09:38:04;21.30;48.20
44863;DHT22;30597;49.628;10.850;2023-04-15T09:43:01;21.20;48.30
44863;DHT22;30597;49.628;10.850;2023-04-15T09:45:27;21.10;48.40
44863;DHT22;30597;49.628;10.850;2023-04-15T09:47:53;21.10;48.60
44863;DHT22;30597;49.628;10.850;2023-04-15T09:50:19;21.10;48.60
44863;DHT22;30597;49.628;10.850;2023-04-15T09:52:46;20.90;48.60
44863;DHT22;30597;49.628;10.850;2023-04-15T09:55:13;20.90;48.60
44863;DHT22;30597;49.628;10.850;2023-04-15T09:57:39;20.90;48.70
44863;DHT22;30597;49.628;10.850;2023-04-15T10:00:14;20.80;48.70
44863;DHT22;30597;49.628;10.850;2023-04-15T10:02:40;20.80;48.70
44863;DHT22;30597;49.628;10.850;2023-04-15T10:05:13;20.80;48.90
44863;DHT22;30597;49.628;10.850;2023-04-15T10:07:39;20.90;49.10
44863;DHT22;30597;49.628;10.850;2023-04-15T10:10:07;20.70;48.90
44863;DHT22;30597;49.628;10.850;2023-04-15T10:12:38;20.80;49.00
44863;DHT22;30597;49.628;10.850;2023-04-15T10:15:05;20.70;49.00
44863;DHT22;30597;49.628;10.850;2023-04-15T10:17:32;20.70;49.10
44863;DHT22;30597;49.628;10.850;2023-04-15T10:20:03;20.70;49.10
44863;DHT22;30597;49.628;10.850;2023-04-15T10:22:30;20.70;49.00
44863;DHT22;30597;49.628;10.850;2023-04-15T10:24:56;20.70;49.00
44863;DHT22;30597;49.628;10.850;2023-04-15T10:27:22;20.70;48.90
44863;DHT22;30597;49.628;10.850;2023-04-15T10:29:49;20.80;48.60
44863;DHT22;30597;49.628;10.850;2023-04-15T10:32:20;20.90;48.40
44863;DHT22;30597;49.628;10.850;2023-04-15T10:34:48;21.10;48.40
44863;DHT22;30597;49.628;10.850;2023-04-15T10:37:35;21.20;48.30
44863;DHT22;30597;49.628;10.850;2023-04-15T10:42:56;21.30;47.90
44863;DHT22;30597;49.628;10.850;2023-04-15T10:45:25;21.50;47.90
44863;DHT22;30597;49.628;10.850;2023-04-15T10:47:55;21.50;47.60
44863;DHT22;30597;49.628;10.850;2023-04-15T10:50:23;21.50;46.30
44863;DHT22;30597;49.628;10.850;2023-04-15T10:52:50;21.50;45.90
44863;DHT22;30597;49.628;10.850;2023-04-15T10:55:25;21.60;45.80
44863;DHT22;30597;49.628;10.850;2023-04-15T10:57:52;21.60;45.80
44863;DHT22;30597;49.628;10.850;2023-04-15T11:00:20;21.70;45.90
44863;DHT22;30597;49.628;10.850;2023-04-15T11:05:49;21.80;45.90
44863;DHT22;30597;49.628;10.850;2023-04-15T11:08:15;21.70;45.90
44863;DHT22;30597;49.628;10.850;2023-04-15T11:15:38;21.80;46.10
44863;DHT22;30597;49.628;10.850;2023-04-15T11:18:13;21.60;46.20
44863;DHT22;30597;49.628;10.850;2023-04-15T11:20:42;21.60;46.20
44863;DHT22;30597;49.628;10.850;2023-04-15T11:23:12;21.60;46.30
44863;DHT22;30597;49.628;10.850;2023-04-15T11:25:37;21.50;46.30
44863;DHT22;30597;49.628;10.850;2023-04-15T11:28:04;21.50;46.40
44863;DHT22;30597;49.628;10.850;2023-04-15T11:30:32;21.50;46.50
44863;DHT22;30597;49.628;10.850;2023-04-15T11:33:05;21.40;46.70
44863;DHT22;30597;49.628;10.850;2023-04-15T11:35:31;21.40;46.80
44863;DHT22;30597;49.628;10.850;2023-04-15T11:37:56;21.30;46.80
44863;DHT22;30597;49.628;10.850;2023-04-15T11:40:24;21.20;46.90
44863;DHT22;30597;49.628;10.850;2023-04-15T11:43:15;21.20;47.00
44863;DHT22;30597;49.628;10.850;2023-04-15T11:45:54;21.10;47.10
44863;DHT22;30597;49.628;10.850;2023-04-15T11:48:29;21.20;47.20
44863;DHT22;30597;49.628;10.850;2023-04-15T11:50:59;21.10;47.30
44863;DHT22;30597;49.628;10.850;2023-04-15T11:53:36;21.00;47.30
44863;DHT22;30597;49.628;10.850;2023-04-15T11:56:03;21.00;47.40
44863;DHT22;30597;49.628;10.850;2023-04-15T11:58:28;21.00;47.40
44863;DHT22;30597;49.628;10.850;2023-04-15T12:00:57;20.90;47.40
44863;DHT22;30597;49.628;10.850;2023-04-15T12:03:26;20.90;47.60
44863;DHT22;30597;49.628;10.850;2023-04-15T12:11:41;21.00;47.60
44863;DHT22;30597;49.628;10.850;2023-04-15T12:16:50;21.00;47.90
44863;DHT22;30597;49.628;10.850;2023-04-15T12:19:39;21.10;48.20
44863;DHT22;30597;49.628;10.850;2023-04-15T12:22:13;21.10;48.10
44863;DHT22;30597;49.628;10.850;2023-04-15T12:24:41;21.20;48.20
44863;DHT22;30597;49.628;10.850;2023-04-15T12:27:13;21.20;48.30
44863;DHT22;30597;49.628;10.850;2023-04-15T12:29:40;21.30;48.20
44863;DHT22;30597;49.628;10.850;2023-04-15T12:32:14;21.50;48.30
44863;DHT22;30597;49.628;10.850;2023-04-15T12:34:51;21.50;47.80
44863;DHT22;30597;49.628;10.850;2023-04-15T12:37:17;21.60;47.60
44863;DHT22;30597;49.628;10.850;2023-04-15T12:39:44;21.70;46.50
44863;DHT22;30597;49.628;10.850;2023-04-15T12:42:11;21.60;45.10
44863;DHT22;30597;49.628;10.850;2023-04-15T12:44:37;21.70;44.10
44863;DHT22;30597;49.628;10.850;2023-04-15T12:47:03;21.60;44.10
44863;DHT22;30597;49.628;10.850;2023-04-15T12:49:30;21.70;44.00
44863;DHT22;30597;49.628;10.850;2023-04-15T12:51:57;21.80;44.00
44863;DHT22;30597;49.628;10.850;2023-04-15T12:54:27;21.70;44.10
44863;DHT22;30597;49.628;10.850;2023-04-15T12:56:53;21.70;44.20
44863;DHT22;30597;49.628;10.850;2023-04-15T12:59:19;21.70;44.30
44863;DHT22;30597;49.628;10.850;2023-04-15T13:01:46;21.60;44.40
44863;DHT22;30597;49.628;10.850;2023-04-15T13:04:13;21.70;44.60
44863;DHT22;30597;49.628;10.850;2023-04-15T13:06:38;21.60;44.70
44863;DHT22;30597;49.628;10.850;2023-04-15T13:09:04;21.50;44.70
44863;DHT22;30597;49.628;10.850;2023-04-15T13:11:30;21.50;44.90
44863;DHT22;30597;49.628;10.850;2023-04-15T13:14:05;21.40;45.00
44863;DHT22;30597;49.628;10.850;2023-04-15T13:16:31;21.40;45.30
44863;DHT22;30597;49.628;10.850;2023-04-15T13:19:01;21.30;45.40
44863;DHT22;30597;49.628;10.850;2023-04-15T13:21:27;21.20;45.40
44863;DHT22;30597;49.628;10.850;2023-04-15T13:23:53;21.20;45.50
44863;DHT22;30597;49.628;10.850;2023-04-15T13:26:18;21.20;45.70
44863;DHT22;30597;49.628;10.850;2023-04-15T13:28:44;21.00;45.80
44863;DHT22;30597;49.628;10.850;2023-04-15T13:31:10;21.10;46.00
44863;DHT22;30597;49.628;10.850;2023-04-15T13:33:35;21.00;46.10
44863;DHT22;30597;49.628;10.850;2023-04-15T13:36:01;20.90;46.10
44863;DHT22;30597;49.628;10.850;2023-04-15T13:38:27;20.90;46.20
44863;DHT22;30597;49.628;10.850;2023-04-15T13:40:52;20.90;46.30
44863;DHT22;30597;49.628;10.850;2023-04-15T13:43:18;20.80;46.40
44863;DHT22;30597;49.628;10.850;2023-04-15T13:45:45;20.90;46.60
44863;DHT22;30597;49.628;10.850;2023-04-15T13:48:10;20.80;46.70
44863;DHT22;30597;49.628;10.850;2023-04-15T13:50:36;20.70;46.70
44863;DHT22;30597;49.628;10.850;2023-04-15T13:53:01;20.80;46.80
44863;DHT22;30597;49.628;10.850;2023-04-15T13:55:27;20.70;46.80
44863;DHT22;30597;49.628;10.850;2023-04-15T13:57:52;20.70;46.90
44863;DHT22;30597;49.628;10.850;2023-04-15T14:00:18;20.70;46.90
44863;DHT22;30597;49.628;10.850;2023-04-15T14:02:44;20.60;46.90
44863;DHT22;30597;49.628;10.850;2023-04-15T14:05:10;20.70;46.80
44863;DHT22;30597;49.628;10.850;2023-04-15T14:07:36;20.80;46.80
44863;DHT22;30597;49.628;10.850;2023-04-15T14:10:02;20.90;46.70
44863;DHT22;30597;49.628;10.850;2023-04-15T14:12:27;21.10;46.50
44863;DHT22;30597;49.628;10.850;2023-04-15T14:14:53;21.10;46.40
44863;DHT22;30597;49.628;10.850;2023-04-15T14:17:18;21.30;46.40
44863;DHT22;30597;49.628;10.850;2023-04-15T14:19:44;21.30;46.20
44863;DHT22;30597;49.628;10.850;2023-04-15T14:22:09;21.30;46.20
44863;DHT22;30597;49.628;10.850;2023-04-15T14:24:35;21.40;46.20
44863;DHT22;30597;49.628;10.850;2023-04-15T14:27:01;21.40;46.00
44863;DHT22;30597;49.628;10.850;2023-04-15T14:29:27;21.50;46.10
44863;DHT22;30597;49.628;10.850;2023-04-15T14:31:53;21.50;46.00
44863;DHT22;30597;49.628;10.850;2023-04-15T14:34:18;21.50;45.90
44863;DHT22;30597;49.628;10.850;2023-04-15T14:36:46;21.50;46.00
44863;DHT22;30597;49.628;10.850;2023-04-15T14:39:13;21.50;45.90
44863;DHT22;30597;49.628;10.850;2023-04-15T14:41:38;21.50;46.00
44863;DHT22;30597;49.628;10.850;2023-04-15T14:44:04;21.40;45.90
44863;DHT22;30597;49.628;10.850;2023-04-15T14:46:30;21.50;46.00
44863;DHT22;30597;49.628;10.850;2023-04-15T14:48:55;21.40;46.10
44863;DHT22;30597;49.628;10.850;2023-04-15T14:51:21;21.40;46.10
44863;DHT22;30597;49.628;10.850;2023-04-15T14:53:47;21.30;46.10
44863;DHT22;30597;49.628;10.850;2023-04-15T14:56:13;21.20;46.00
44863;DHT22;30597;49.628;10.850;2023-04-15T14:58:38;21.30;46.30
44863;DHT22;30597;49.628;10.850;2023-04-15T15:01:04;21.20;46.40
44863;DHT22;30597;49.628;10.850;2023-04-15T15:03:30;21.10;46.30
44863;DHT22;30597;49.628;10.850;2023-04-15T15:05:55;21.10;46.40
44863;DHT22;30597;49.628;10.850;2023-04-15T15:08:22;21.00;46.50
44863;DHT22;30597;49.628;10.850;2023-04-15T15:10:48;21.00;46.60
44863;DHT22;30597;49.628;10.850;2023-04-15T15:13:13;21.00;46.70
44863;DHT22;30597;49.628;10.850;2023-04-15T15:15:40;20.90;46.70
44863;DHT22;30597;49.628;10.850;2023-04-15T15:18:05;20.80;46.80
44863;DHT22;30597;49.628;10.850;2023-04-15T15:20:31;20.80;46.80
44863;DHT22;30597;49.628;10.850;2023-04-15T15:22:57;20.80;47.00
44863;DHT22;30597;49.628;10.850;2023-04-15T15:25:23;20.90;47.80
44863;DHT22;30597;49.628;10.850;2023-04-15T15:27:49;20.80;48.20
44863;DHT22;30597;49.628;10.850;2023-04-15T15:30:14;20.90;48.50
44863;DHT22;30597;49.628;10.850;2023-04-15T15:32:41;20.90;48.70
44863;DHT22;30597;49.628;10.850;2023-04-15T15:35:07;20.80;48.50